Time;durP1;ratioP1;P1;durP2;ratioP2;P2;SDS_P1;SDS_P2;PMS_P1;PMS_P2;Temp;Humidity;BMP_temperature;BMP_pressure;BME280_temperature;BME280_humidity;BME280_pressure;Samples;Min_cycle;Max_cycle;Signal;HPM_P1;HPM_P2
2022/08/29 00:00:15;;;;;;;3.42;1.42;;;22.50;53.40;;;;;;5073804;28;20166;-62
2022/08/29 00:02:40;;;;;;;1.33;1.00;;;22.50;53.20;;;;;;5074457;28;20174;-62
2022/08/29 00:05:06;;;;;;;2.92;1.20;;;22.50;53.30;;;;;;5073906;28;20166;-62
2022/08/29 00:07:32;;;;;;;2.83;1.30;;;22.50;53.30;;;;;;5073647;28;20228;-62
2022/08/29 00:09:57;;;;;;;2.53;1.48;;;22.50;53.30;;;;;;5073752;28;20198;-62
2022/08/29 00:12:23;;;;;;;1.52;1.30;;;22.50;53.40;;;;;;5073249;28;20190;-62
2022/08/29 00:14:51;;;;;;;1.40;1.30;;;22.50;53.40;;;;;;5073081;28;20173;-62
2022/08/29 00:17:17;;;;;;;1.45;1.35;;;22.50;53.50;;;;;;5073870;28;20336;-63
2022/08/29 00:19:42;;;;;;;2.05;1.40;;;22.50;53.40;;;;;;5073314;28;20253;-63
2022/08/29 00:22:08;;;;;;;1.02;0.95;;;22.50;53.40;;;;;;5073943;28;20166;-63
2022/08/29 00:24:33;;;;;;;1.45;1.10;;;22.50;53.40;;;;;;5073590;28;20296;-62
2022/08/29 00:27:00;;;;;;;1.40;1.30;;;22.50;53.50;;;;;;5073160;28;20685;-62
2022/08/29 00:29:27;;;;;;;1.40;1.13;;;22.50;53.60;;;;;;5073663;28;20293;-62
2022/08/29 00:31:52;;;;;;;1.90;1.40;;;22.40;53.40;;;;;;5069769;28;20197;-62
2022/08/29 00:34:18;;;;;;;1.92;1.13;;;22.40;53.50;;;;;;5073132;28;20175;-62
2022/08/29 00:36:43;;;;;;;2.47;1.40;;;22.40;53.50;;;;;;5073407;28;20198;-62
2022/08/29 00:39:09;;;;;;;2.85;1.38;;;22.40;53.50;;;;;;5073463;28;20174;-62
2022/08/29 00:41:34;;;;;;;2.45;1.40;;;22.40;53.50;;;;;;5072763;28;20636;-62
2022/08/29 00:44:00;;;;;;;1.90;1.42;;;22.40;53.50;;;;;;5073187;28;20617;-62
2022/08/29 00:46:45;;;;;;;1.55;1.17;;;22.40;53.50;;;;;;5073494;28;20660;-62
2022/08/29 00:49:28;;;;;;;1.20;1.08;;;22.40;53.50;;;;;;5054656;28;20720;-62
2022/08/29 00:51:54;;;;;;;1.80;1.20;;;22.40;53.50;;;;;;5053996;28;20212;-62
2022/08/29 00:54:19;;;;;;;1.45;1.00;;;22.40;53.60;;;;;;5055597;28;20174;-62
2022/08/29 00:56:45;;;;;;;1.90;1.30;;;22.40;53.60;;;;;;5054262;28;20648;-63
2022/08/29 00:59:14;;;;;;;2.00;1.08;;;22.40;53.60;;;;;;5055204;28;20536;-62
2022/08/29 01:01:40;;;;;;;1.73;1.27;;;22.40;53.60;;;;;;5054551;28;20175;-62
2022/08/29 01:04:05;;;;;;;2.28;1.33;;;22.40;53.60;;;;;;5073091;28;20254;-62
2022/08/29 01:06:31;;;;;;;1.98;1.38;;;22.40;53.60;;;;;;5072956;28;20652;-62
2022/08/29 01:08:56;;;;;;;1.88;1.20;;;22.40;53.60;;;;;;5054550;28;20190;-62
2022/08/29 01:14:06;;;;;;;1.20;1.10;;;22.40;53.60;;;;;;5057539;28;20244;-62
2022/08/29 01:16:31;;;;;;;1.83;1.33;;;22.40;53.70;;;;;;5054280;28;20251;-63
2022/08/29 01:19:02;;;;;;;2.65;1.15;;;22.30;53.60;;;;;;5072418;28;20279;-63
2022/08/29 01:21:39;;;;;;;1.50;1.10;;;22.30;53.70;;;;;;5054859;28;20242;-63
2022/08/29 01:24:29;;;;;;;1.30;1.00;;;22.30;53.70;;;;;;5050072;28;20226;-62
2022/08/29 01:26:54;;;;;;;1.77;1.40;;;22.30;53.60;;;;;;5050387;28;20178;-62
2022/08/29 01:29:20;;;;;;;1.08;1.00;;;22.30;53.70;;;;;;5054755;28;20163;-62
2022/08/29 01:31:47;;;;;;;1.98;1.38;;;22.30;53.70;;;;;;5071856;28;20162;-62
2022/08/29 01:34:13;;;;;;;1.65;1.02;;;22.30;53.60;;;;;;5072670;28;20174;-62
2022/08/29 01:36:43;;;;;;;1.45;1.20;;;22.30;53.60;;;;;;5071694;28;20194;-62
2022/08/29 01:39:09;;;;;;;1.95;1.15;;;22.30;53.70;;;;;;5054807;28;20166;-62
2022/08/29 01:41:34;;;;;;;1.10;1.00;;;22.30;53.70;;;;;;5072559;28;20175;-62
2022/08/29 01:44:00;;;;;;;1.95;1.50;;;22.30;53.60;;;;;;5071683;28;20170;-63
2022/08/29 01:46:33;;;;;;;1.63;1.42;;;22.30;53.70;;;;;;5072501;28;20170;-62
2022/08/29 01:48:59;;;;;;;1.20;1.10;;;22.30;53.70;;;;;;5069195;28;20265;-62
2022/08/29 01:51:25;;;;;;;1.25;1.00;;;22.30;53.60;;;;;;5071568;28;20179;-62
2022/08/29 01:53:51;;;;;;;1.92;1.15;;;22.30;53.60;;;;;;5071999;28;20636;-62
2022/08/29 01:56:21;;;;;;;1.85;1.17;;;22.30;53.60;;;;;;5072065;28;20206;-62
2022/08/29 01:58:47;;;;;;;1.30;1.20;;;22.30;53.70;;;;;;5071051;28;20656;-63
2022/08/29 02:01:15;;;;;;;1.92;1.30;;;22.30;53.80;;;;;;5072244;28;20174;-62
2022/08/29 02:03:41;;;;;;;1.30;1.20;;;22.30;53.80;;;;;;5054001;28;20547;-62
2022/08/29 02:06:08;;;;;;;1.38;1.10;;;22.30;53.70;;;;;;5071016;28;20174;-62
2022/08/29 02:08:35;;;;;;;1.75;1.20;;;22.30;53.70;;;;;;5072126;28;20181;-62
2022/08/29 02:11:00;;;;;;;1.92;1.17;;;22.20;53.70;;;;;;5071813;28;20356;-62
2022/08/29 02:13:26;;;;;;;2.30;1.17;;;22.20;53.70;;;;;;5071158;28;20282;-62
2022/08/29 02:15:51;;;;;;;2.22;1.63;;;22.20;53.70;;;;;;5071637;28;20249;-63
2022/08/29 02:18:17;;;;;;;1.75;1.38;;;22.20;53.70;;;;;;5071910;28;20189;-62
2022/08/29 02:20:43;;;;;;;1.60;1.30;;;22.20;53.70;;;;;;5070926;28;20185;-63
2022/08/29 02:23:09;;;;;;;2.63;1.20;;;22.20;53.70;;;;;;5071778;28;20170;-63
2022/08/29 02:25:41;;;;;;;1.88;1.52;;;22.20;53.70;;;;;;5072025;28;20177;-62
2022/08/29 02:28:10;;;;;;;0.98;0.88;;;22.20;53.70;;;;;;5071068;28;20174;-62
2022/08/29 02:30:40;;;;;;;1.70;1.10;;;22.20;53.70;;;;;;5071667;28;20182;-62
2022/08/29 02:33:06;;;;;;;1.27;1.15;;;22.20;53.70;;;;;;5070965;28;20174;-62
2022/08/29 02:35:31;;;;;;;1.75;1.20;;;22.20;53.80;;;;;;5071850;28;20696;-62
2022/08/29 02:37:57;;;;;;;2.08;1.40;;;22.20;53.80;;;;;;5074683;28;20266;-62
2022/08/29 02:40:24;;;;;;;1.50;1.40;;;22.20;53.70;;;;;;5075151;28;20196;-62
2022/08/29 02:42:50;;;;;;;1.38;1.27;;;22.20;53.80;;;;;;5075562;28;20186;-62
2022/08/29 02:45:15;;;;;;;1.27;1.17;;;22.20;53.70;;;;;;5075746;28;20159;-62
2022/08/29 02:47:41;;;;;;;1.55;0.95;;;22.20;53.80;;;;;;5075126;28;20197;-62
2022/08/29 02:50:07;;;;;;;1.83;1.33;;;22.20;53.80;;;;;;5075412;28;20205;-62
2022/08/29 02:52:33;;;;;;;1.48;1.30;;;22.10;53.60;;;;;;5075417;28;20540;-62
2022/08/29 02:54:59;;;;;;;2.08;1.48;;;22.20;53.70;;;;;;5074516;28;20173;-62
2022/08/29 02:57:24;;;;;;;1.92;1.27;;;22.10;53.70;;;;;;5075518;28;20201;-62
2022/08/29 02:59:50;;;;;;;0.93;0.93;;;22.10;53.80;;;;;;5075159;28;20170;-62
2022/08/29 03:02:15;;;;;;;2.90;1.50;;;22.10;53.80;;;;;;5074861;28;20265;-62
2022/08/29 03:04:41;;;;;;;2.33;1.40;;;22.10;53.70;;;;;;5075227;28;20269;-62
2022/08/29 03:07:06;;;;;;;1.40;1.25;;;22.10;53.70;;;;;;5075254;28;20182;-62
2022/08/29 03:09:32;;;;;;;1.73;1.30;;;22.10;53.80;;;;;;5074492;28;20201;-62
2022/08/29 03:11:57;;;;;;;2.05;1.10;;;22.10;53.80;;;;;;5074882;28;20181;-62
2022/08/29 03:14:23;;;;;;;3.05;1.30;;;22.10;53.70;;;;;;5074899;28;20257;-62
2022/08/29 03:16:49;;;;;;;1.40;1.30;;;22.10;53.70;;;;;;5074248;28;20202;-62
2022/08/29 03:19:14;;;;;;;1.77;1.50;;;22.10;53.80;;;;;;5075155;28;20166;-63
2022/08/29 03:21:41;;;;;;;1.63;1.40;;;22.10;53.70;;;;;;5074840;28;20182;-63
2022/08/29 03:24:07;;;;;;;1.30;1.20;;;22.10;53.70;;;;;;5073797;28;20250;-62
2022/08/29 03:26:32;;;;;;;3.00;1.30;;;22.10;53.80;;;;;;5074652;28;20205;-62
2022/08/29 03:28:58;;;;;;;2.13;1.35;;;22.10;53.70;;;;;;5074531;28;20684;-62
2022/08/29 03:31:23;;;;;;;1.27;1.10;;;22.00;53.70;;;;;;5074135;28;20179;-61
2022/08/29 03:33:49;;;;;;;1.85;1.40;;;22.00;53.70;;;;;;5074605;28;20162;-61
2022/08/29 03:36:15;;;;;;;1.92;1.50;;;22.00;53.70;;;;;;5074005;28;20219;-62
2022/08/29 03:38:42;;;;;;;1.58;1.20;;;22.00;53.70;;;;;;5074836;28;20170;-62
2022/08/29 03:41:08;;;;;;;1.70;1.40;;;22.00;53.70;;;;;;5074441;28;20175;-62
2022/08/29 03:43:34;;;;;;;1.83;1.73;;;22.10;53.80;;;;;;5073622;28;20171;-62
2022/08/29 03:45:59;;;;;;;2.10;1.30;;;22.00;53.70;;;;;;5074510;28;20258;-62
2022/08/29 03:48:25;;;;;;;1.80;1.27;;;22.00;53.60;;;;;;5073445;28;20174;-62
2022/08/29 03:50:50;;;;;;;2.35;1.33;;;22.00;53.70;;;;;;5073400;28;20538;-61
2022/08/29 03:53:16;;;;;;;1.40;1.30;;;22.00;53.70;;;;;;5074432;28;20170;-62
2022/08/29 03:55:41;;;;;;;2.42;1.58;;;22.00;53.70;;;;;;5074185;28;20632;-61
2022/08/29 03:58:07;;;;;;;2.45;1.73;;;22.00;53.70;;;;;;5073269;28;20206;-61
2022/08/29 04:00:32;;;;;;;1.80;1.55;;;22.00;53.70;;;;;;5074123;28;20167;-62
2022/08/29 04:02:58;;;;;;;1.95;1.60;;;22.00;53.70;;;;;;5074328;28;20177;-62
2022/08/29 04:05:24;;;;;;;2.10;1.85;;;22.00;53.80;;;;;;5073711;28;20616;-62
2022/08/29 04:07:57;;;;;;;1.42;1.33;;;22.00;53.80;;;;;;5073967;28;20574;-62
2022/08/29 04:10:25;;;;;;;2.45;1.50;;;22.00;53.70;;;;;;5070617;28;20206;-62
2022/08/29 04:12:51;;;;;;;2.80;1.58;;;22.00;53.70;;;;;;5073258;28;20175;-62
2022/08/29 04:15:16;;;;;;;2.40;2.00;;;22.00;53.80;;;;;;5074180;28;20176;-62
2022/08/29 04:17:42;;;;;;;1.70;1.48;;;22.00;53.80;;;;;;5073825;28;20247;-62
2022/08/29 04:20:08;;;;;;;1.98;1.58;;;22.00;53.80;;;;;;5072889;28;20171;-62
2022/08/29 04:22:35;;;;;;;1.90;1.70;;;22.00;53.80;;;;;;5073771;28;20493;-62
2022/08/29 04:25:01;;;;;;;1.88;1.60;;;22.00;53.80;;;;;;5073638;28;20214;-62
2022/08/29 04:27:26;;;;;;;2.38;1.60;;;22.00;53.80;;;;;;5073502;28;20189;-63
2022/08/29 04:29:52;;;;;;;2.20;1.75;;;22.00;53.90;;;;;;5074403;28;20190;-62
2022/08/29 04:32:18;;;;;;;1.77;1.48;;;22.00;53.80;;;;;;5074195;28;20559;-62
2022/08/29 04:34:44;;;;;;;2.58;2.00;;;21.90;53.80;;;;;;5073449;28;20236;-63
2022/08/29 04:37:10;;;;;;;1.98;1.70;;;21.90;53.80;;;;;;5074366;28;20202;-63
2022/08/29 04:39:35;;;;;;;2.67;1.70;;;21.90;53.80;;;;;;5073390;28;20189;-63
2022/08/29 04:42:01;;;;;;;2.33;1.90;;;21.90;53.80;;;;;;5073665;28;20175;-63
2022/08/29 04:44:26;;;;;;;2.65;1.80;;;21.90;53.90;;;;;;5074121;28;20174;-63
2022/08/29 04:46:52;;;;;;;1.70;1.50;;;21.90;53.80;;;;;;5073185;28;20186;-63
2022/08/29 04:49:18;;;;;;;2.40;1.80;;;21.90;53.80;;;;;;5074189;28;20166;-62
2022/08/29 04:51:44;;;;;;;2.85;1.70;;;22.00;53.90;;;;;;5073799;28;20174;-62
2022/08/29 04:54:09;;;;;;;3.50;2.30;;;21.90;53.80;;;;;;5073324;28;20167;-62
2022/08/29 04:56:36;;;;;;;2.28;1.77;;;21.90;53.90;;;;;;5073458;28;20580;-63
2022/08/29 04:59:02;;;;;;;2.53;1.90;;;21.90;53.80;;;;;;5073522;28;20170;-63
2022/08/29 05:01:28;;;;;;;2.65;2.25;;;21.90;53.90;;;;;;5072859;28;20178;-63
2022/08/29 05:03:54;;;;;;;2.95;2.13;;;21.90;53.90;;;;;;5073502;28;20178;-63
2022/08/29 05:06:20;;;;;;;3.38;2.22;;;21.90;53.80;;;;;;5073539;28;20182;-63
2022/08/29 05:08:46;;;;;;;2.63;2.08;;;21.90;53.90;;;;;;5072876;28;20178;-63
2022/08/29 05:11:14;;;;;;;2.95;2.00;;;21.90;53.90;;;;;;5073553;28;20170;-63
2022/08/29 05:13:40;;;;;;;4.95;2.47;;;21.90;53.90;;;;;;5073515;28;20167;-63
2022/08/29 05:16:09;;;;;;;2.45;2.25;;;21.90;53.90;;;;;;5072464;28;20240;-63
2022/08/29 05:18:36;;;;;;;2.80;2.38;;;21.90;53.90;;;;;;5073334;28;20175;-63
2022/08/29 05:21:01;;;;;;;2.35;2.10;;;21.90;53.90;;;;;;5073040;28;20177;-63
2022/08/29 05:23:26;;;;;;;2.15;1.70;;;21.90;53.90;;;;;;5072254;28;20297;-63
2022/08/29 05:25:59;;;;;;;2.50;2.17;;;21.90;53.90;;;;;;5073289;28;20253;-63
2022/08/29 05:28:25;;;;;;;3.20;2.28;;;21.90;53.90;;;;;;5069722;28;20244;-63
2022/08/29 05:30:51;;;;;;;2.40;2.20;;;21.90;54.00;;;;;;5072200;28;20625;-63
2022/08/29 05:33:17;;;;;;;2.90;2.50;;;21.90;53.90;;;;;;5072924;28;20178;-63
2022/08/29 05:35:43;;;;;;;2.30;2.10;;;21.90;53.90;;;;;;5072950;28;20186;-62
2022/08/29 05:38:09;;;;;;;2.15;1.95;;;21.90;53.90;;;;;;5072748;28;20285;-63
2022/08/29 05:40:34;;;;;;;2.58;1.92;;;21.90;53.90;;;;;;5072989;28;20258;-63
2022/08/29 05:43:00;;;;;;;2.63;2.40;;;21.90;54.20;;;;;;5072048;28;20202;-64
2022/08/29 05:45:25;;;;;;;2.72;2.25;;;21.90;54.00;;;;;;5072939;28;20159;-63
2022/08/29 05:47:51;;;;;;;2.40;2.03;;;21.90;53.80;;;;;;5072741;28;20171;-63
2022/08/29 05:50:17;;;;;;;2.40;2.10;;;21.90;53.80;;;;;;5072349;28;20170;-63
2022/08/29 05:52:43;;;;;;;3.25;2.45;;;21.90;54.50;;;;;;5072636;28;20171;-62
2022/08/29 05:55:08;;;;;;;2.92;2.13;;;21.90;53.80;;;;;;5072528;28;20163;-63
2022/08/29 05:57:34;;;;;;;2.97;2.20;;;21.90;53.80;;;;;;5072031;28;20206;-63
2022/08/29 05:59:59;;;;;;;3.15;2.22;;;21.90;53.90;;;;;;5072394;28;20169;-63
2022/08/29 06:02:25;;;;;;;2.85;2.17;;;21.90;53.80;;;;;;5072431;28;20186;-63
2022/08/29 06:04:51;;;;;;;2.15;1.95;;;21.90;53.90;;;;;;5071674;28;20177;-63
2022/08/29 06:07:16;;;;;;;2.90;2.20;;;22.00;53.80;;;;;;5072760;28;20178;-63
2022/08/29 06:09:42;;;;;;;2.67;2.15;;;22.00;53.90;;;;;;5072359;28;20203;-63
2022/08/29 06:12:08;;;;;;;4.13;2.20;;;22.00;53.80;;;;;;5071130;28;20178;-63
2022/08/29 06:14:33;;;;;;;3.40;2.97;;;22.00;53.80;;;;;;5072621;28;20557;-63
2022/08/29 06:16:59;;;;;;;2.67;2.40;;;22.00;53.80;;;;;;5072044;28;20219;-64
2022/08/29 06:19:25;;;;;;;4.10;2.38;;;22.00;53.80;;;;;;5071844;28;20172;-64
2022/08/29 06:21:53;;;;;;;3.00;2.42;;;22.00;53.80;;;;;;5072321;28;20618;-64
2022/08/29 06:24:18;;;;;;;5.38;2.83;;;22.00;53.70;;;;;;5072319;28;20217;-63
2022/08/29 06:26:44;;;;;;;9.73;3.30;;;22.10;53.80;;;;;;5070785;28;20174;-63
2022/08/29 06:29:10;;;;;;;6.50;2.50;;;22.10;53.80;;;;;;5072518;28;20235;-64
2022/08/29 06:31:35;;;;;;;5.18;2.50;;;22.10;53.90;;;;;;5072250;28;20171;-63
2022/08/29 06:34:03;;;;;;;4.35;2.80;;;22.00;53.80;;;;;;5071327;28;20208;-64
2022/08/29 06:36:29;;;;;;;5.78;3.22;;;22.00;53.90;;;;;;5071958;28;20244;-64
2022/08/29 06:38:56;;;;;;;5.13;2.90;;;22.10;53.90;;;;;;5072220;28;20178;-65
2022/08/29 06:41:21;;;;;;;4.30;2.60;;;22.10;54.00;;;;;;5071553;28;20167;-65
2022/08/29 06:43:47;;;;;;;6.88;2.88;;;22.10;53.90;;;;;;5072133;28;20178;-64
2022/08/29 06:46:23;;;;;;;8.25;2.90;;;22.10;53.90;;;;;;5071501;28;20167;-62
2022/08/29 06:48:49;;;;;;;6.72;2.67;;;22.10;54.00;;;;;;5072136;28;20185;-63
2022/08/29 06:51:14;;;;;;;5.40;2.85;;;22.10;54.10;;;;;;5072069;28;20171;-62
2022/08/29 06:53:40;;;;;;;5.13;2.70;;;22.10;53.90;;;;;;5071341;28;20603;-62
2022/08/29 06:56:06;;;;;;;7.00;3.05;;;22.10;54.10;;;;;;5071541;28;20598;-62
2022/08/29 06:58:32;;;;;;;7.97;2.85;;;22.10;54.10;;;;;;5071974;28;20273;-63
2022/08/29 07:00:57;;;;;;;6.05;2.70;;;22.10;54.10;;;;;;5071060;28;20178;-63
2022/08/29 07:03:23;;;;;;;4.25;2.78;;;22.20;54.20;;;;;;5071979;28;20174;-63
2022/08/29 07:05:52;;;;;;;6.85;2.85;;;22.20;54.20;;;;;;5071749;28;20162;-63
2022/08/29 07:08:18;;;;;;;4.57;2.50;;;22.10;54.00;;;;;;5067776;28;20170;-63
2022/08/29 07:10:44;;;;;;;5.50;2.53;;;22.10;54.10;;;;;;5071666;28;20586;-63
2022/08/29 07:13:09;;;;;;;5.50;2.75;;;22.10;54.10;;;;;;5071913;28;20286;-63
2022/08/29 07:15:35;;;;;;;6.28;2.67;;;22.10;54.10;;;;;;5071430;28;20249;-63
2022/08/29 07:18:00;;;;;;;8.48;3.30;;;22.10;54.60;;;;;;5071562;28;20195;-63
2022/08/29 07:20:26;;;;;;;7.82;3.13;;;22.10;53.90;;;;;;5071773;28;20167;-63
2022/08/29 07:22:51;;;;;;;5.03;2.67;;;22.10;53.80;;;;;;5071899;28;20182;-64
2022/08/29 07:25:18;;;;;;;4.78;2.80;;;22.10;54.10;;;;;;5075596;28;20583;-63
2022/08/29 07:27:45;;;;;;;6.88;2.75;;;22.10;54.00;;;;;;5075130;28;20692;-62
2022/08/29 07:30:11;;;;;;;4.68;2.65;;;22.10;54.10;;;;;;5074666;28;20620;-62
2022/08/29 07:32:36;;;;;;;4.40;2.65;;;22.20;54.10;;;;;;5075116;28;20193;-62
2022/08/29 07:35:02;;;;;;;5.53;2.83;;;22.10;54.10;;;;;;5075068;28;20175;-62
2022/08/29 07:37:27;;;;;;;6.00;2.67;;;22.20;54.20;;;;;;5074566;28;20206;-63
2022/08/29 07:39:53;;;;;;;3.63;2.50;;;22.20;54.20;;;;;;5075114;28;20162;-63
2022/08/29 07:42:22;;;;;;;6.45;3.33;;;22.20;54.30;;;;;;5075287;28;20167;-63
2022/08/29 07:44:47;;;;;;;6.25;2.78;;;22.20;54.20;;;;;;5075175;28;20170;-63
2022/08/29 07:47:13;;;;;;;6.55;3.17;;;22.20;54.20;;;;;;5075072;28;20173;-63
2022/08/29 07:49:38;;;;;;;5.03;2.25;;;22.20;54.00;;;;;;5074478;28;20514;-63
2022/08/29 07:52:04;;;;;;;5.82;2.90;;;22.20;54.00;;;;;;5075121;28;20580;-63
2022/08/29 07:54:29;;;;;;;5.43;2.63;;;22.20;54.00;;;;;;5075133;28;20174;-63
2022/08/29 07:56:56;;;;;;;8.38;2.97;;;22.20;54.20;;;;;;5074103;28;20221;-63
2022/08/29 07:59:21;;;;;;;3.38;2.60;;;22.30;54.20;;;;;;5075126;28;20194;-63
2022/08/29 08:01:47;;;;;;;3.00;2.63;;;22.30;54.00;;;;;;5074881;28;20599;-63
2022/08/29 08:04:12;;;;;;;4.95;2.70;;;22.30;54.10;;;;;;5074279;28;20166;-63
2022/08/29 08:06:42;;;;;;;6.22;2.83;;;22.30;54.00;;;;;;5074951;28;20219;-63
2022/08/29 08:09:08;;;;;;;5.78;2.60;;;22.30;54.00;;;;;;5074703;28;20189;-63
2022/08/29 08:11:34;;;;;;;3.85;2.60;;;22.20;54.00;;;;;;5073946;28;20685;-63
2022/08/29 08:14:00;;;;;;;4.07;2.70;;;22.30;54.00;;;;;;5074448;28;20195;-63
2022/08/29 08:16:26;;;;;;;4.57;2.53;;;22.30;54.00;;;;;;5074321;28;20668;-63
2022/08/29 08:18:51;;;;;;;3.53;2.67;;;22.30;54.00;;;;;;5073889;28;20170;-63
2022/08/29 08:21:17;;;;;;;3.85;2.45;;;22.30;54.00;;;;;;5074673;28;20204;-63
2022/08/29 08:23:43;;;;;;;4.05;2.90;;;22.40;54.00;;;;;;5074298;28;20221;-63
2022/08/29 08:26:09;;;;;;;4.55;2.67;;;22.40;53.90;;;;;;5074096;28;20174;-63
2022/08/29 08:28:34;;;;;;;5.03;2.65;;;22.40;53.90;;;;;;5074338;28;20688;-63
2022/08/29 08:31:00;;;;;;;4.38;2.35;;;22.40;53.90;;;;;;5074170;28;20662;-62
2022/08/29 08:33:25;;;;;;;4.85;2.47;;;22.40;54.00;;;;;;5073759;28;20175;-62
2022/08/29 08:35:51;;;;;;;4.65;2.42;;;22.40;54.00;;;;;;5073444;28;20178;-62
2022/08/29 08:38:17;;;;;;;3.33;2.38;;;22.50;53.90;;;;;;5074159;28;20202;-63
2022/08/29 08:40:55;;;;;;;2.65;2.00;;;22.50;53.90;;;;;;5073500;28;20174;-63
2022/08/29 08:43:23;;;;;;;3.03;2.22;;;22.50;54.00;;;;;;5070283;28;20174;-63
2022/08/29 08:45:49;;;;;;;4.72;2.50;;;22.50;53.90;;;;;;5055198;28;20205;-63
2022/08/29 08:48:23;;;;;;;5.35;2.50;;;22.50;54.00;;;;;;5056397;28;20201;-62
2022/08/29 08:50:55;;;;;;;4.93;2.50;;;22.50;54.10;;;;;;5073835;28;20174;-62
2022/08/29 08:53:38;;;;;;;2.88;2.40;;;22.50;54.10;;;;;;5073359;28;20178;-62
2022/08/29 08:56:42;;;;;;;3.72;2.25;;;22.50;54.20;;;;;;5053474;28;20162;-63
2022/08/29 08:59:27;;;;;;;3.42;2.42;;;22.50;54.10;;;;;;5055131;28;20178;-63
2022/08/29 09:01:59;;;;;;;4.25;3.00;;;22.50;54.10;;;;;;5054417;28;20581;-63
2022/08/29 09:04:58;;;;;;;3.55;2.30;;;22.50;54.20;;;;;;5073383;28;20174;-63
2022/08/29 09:07:39;;;;;;;3.10;2.70;;;22.50;54.20;;;;;;5072543;28;20543;-63
2022/08/29 09:10:40;;;;;;;2.90;2.10;;;22.50;54.20;;;;;;5057200;28;20219;-63
2022/08/29 09:13:30;;;;;;;2.95;2.40;;;22.50;54.20;;;;;;5028763;28;20192;-63
2022/08/29 09:15:58;;;;;;;3.78;2.50;;;22.50;54.20;;;;;;5052238;28;20629;-63
2022/08/29 09:18:34;;;;;;;2.67;2.15;;;22.50;54.20;;;;;;5055357;28;20207;-63
2022/08/29 09:21:03;;;;;;;3.83;2.17;;;22.50;54.10;;;;;;5068667;28;20636;-63
2022/08/29 09:23:45;;;;;;;4.90;2.92;;;22.50;54.80;;;;;;5073234;28;20236;-63
2022/08/29 09:26:13;;;;;;;3.90;2.35;;;22.50;54.10;;;;;;5071127;28;20617;-63
2022/08/29 09:28:39;;;;;;;3.00;2.17;;;22.50;54.20;;;;;;5072606;28;20174;-63
2022/08/29 09:31:23;;;;;;;3.67;2.47;;;22.50;54.10;;;;;;5073194;28;20171;-63
2022/08/29 09:33:56;;;;;;;2.95;1.92;;;22.50;54.20;;;;;;5071124;28;20179;-62
2022/08/29 09:36:52;;;;;;;3.15;2.40;;;22.60;54.20;;;;;;5072372;28;20170;-63
2022/08/29 09:39:27;;;;;;;3.40;2.75;;;22.60;54.20;;;;;;5056108;28;20186;-63
2022/08/29 09:41:54;;;;;;;3.75;2.67;;;22.60;54.10;;;;;;5072531;28;20531;-63
2022/08/29 09:44:30;;;;;;;2.70;2.15;;;22.70;54.10;;;;;;5072964;28;20171;-63
2022/08/29 09:47:14;;;;;;;2.22;1.80;;;22.80;53.90;;;;;;5068593;28;20174;-63
2022/08/29 09:49:40;;;;;;;2.72;2.30;;;22.80;53.80;;;;;;5054049;28;20740;-62
2022/08/29 09:52:12;;;;;;;2.22;2.03;;;22.80;54.40;;;;;;5068834;28;20525;-63
2022/08/29 09:54:37;;;;;;;3.28;2.35;;;22.90;53.80;;;;;;5072849;28;20232;-62
2022/08/29 09:57:13;;;;;;;3.42;2.45;;;22.80;53.80;;;;;;5053880;28;20206;-63
2022/08/29 09:59:42;;;;;;;2.63;2.17;;;22.80;53.90;;;;;;5072787;28;20204;-63
2022/08/29 10:02:16;;;;;;;2.42;1.95;;;22.80;53.90;;;;;;5055360;28;20175;-63
2022/08/29 10:04:43;;;;;;;3.10;2.20;;;22.80;54.10;;;;;;5051542;28;20594;-63
2022/08/29 10:07:11;;;;;;;3.28;2.30;;;22.80;54.10;;;;;;5072795;28;20174;-64
2022/08/29 10:09:37;;;;;;;3.55;2.30;;;22.80;54.10;;;;;;5072754;28;20178;-63
2022/08/29 10:12:09;;;;;;;6.93;2.47;;;22.70;54.10;;;;;;5071846;28;20166;-63
2022/08/29 10:14:37;;;;;;;4.50;2.20;;;22.70;54.10;;;;;;5055414;28;20629;-63
2022/08/29 10:19:53;;;;;;;3.08;2.45;;;22.70;54.20;;;;;;5068804;28;20227;-63
2022/08/29 10:22:24;;;;;;;4.55;2.70;;;22.70;54.30;;;;;;5072568;28;20175;-63
2022/08/29 10:25:22;;;;;;;3.53;2.08;;;22.60;54.40;;;;;;5071297;28;20225;-64
2022/08/29 10:28:24;;;;;;;5.93;2.65;;;22.60;54.50;;;;;;5056290;28;20523;-63
2022/08/29 10:30:55;;;;;;;4.00;2.20;;;22.70;54.50;;;;;;5053271;28;20212;-63
2022/08/29 10:33:32;;;;;;;5.05;2.40;;;22.60;54.50;;;;;;5067241;28;20178;-63
2022/08/29 10:36:10;;;;;;;3.70;2.35;;;22.70;54.60;;;;;;5068526;28;20181;-63
2022/08/29 10:38:51;;;;;;;5.85;2.30;;;22.70;54.60;;;;;;5053856;28;20527;-63
2022/08/29 10:41:47;;;;;;;4.70;1.92;;;22.70;54.60;;;;;;5054359;28;20178;-60
2022/08/29 10:44:28;;;;;;;5.72;2.33;;;22.70;54.50;;;;;;5052128;28;20225;-61
2022/08/29 10:47:21;;;;;;;5.10;2.40;;;22.70;54.50;;;;;;5069203;28;20169;-60
2022/08/29 10:50:01;;;;;;;9.25;2.33;;;22.70;54.40;;;;;;5055105;28;20170;-62
2022/08/29 10:52:34;;;;;;;6.18;2.53;;;22.70;54.30;;;;;;5050723;28;20224;-65
2022/08/29 10:55:09;;;;;;;3.83;2.40;;;22.80;54.30;;;;;;5054042;28;20697;-63
2022/08/29 10:57:55;;;;;;;9.23;2.33;;;22.80;54.30;;;;;;5052473;28;20198;-63
2022/08/29 11:00:23;;;;;;;6.18;2.33;;;22.80;54.40;;;;;;5053994;28;20170;-63
2022/08/29 11:02:54;;;;;;;6.20;2.25;;;22.80;54.50;;;;;;5057925;28;20318;-64
2022/08/29 11:05:28;;;;;;;5.72;2.17;;;22.70;54.50;;;;;;5057920;28;20170;-64
2022/08/29 11:08:04;;;;;;;7.38;2.25;;;22.70;54.60;;;;;;5056966;28;20253;-62
2022/08/29 11:10:37;;;;;;;3.00;2.22;;;22.70;54.60;;;;;;5054072;28;20651;-61
2022/08/29 11:13:14;;;;;;;5.35;2.28;;;22.80;54.70;;;;;;5058545;28;20175;-61
2022/08/29 11:16:13;;;;;;;3.70;2.20;;;22.80;54.70;;;;;;5057013;28;20688;-61
2022/08/29 11:18:49;;;;;;;4.63;1.95;;;22.80;54.70;;;;;;5074620;28;20175;-62
2022/08/29 11:21:27;;;;;;;6.78;2.30;;;22.80;54.80;;;;;;5055443;28;20177;-61
2022/08/29 11:23:54;;;;;;;7.28;2.25;;;22.80;54.70;;;;;;5054379;28;20217;-60
2022/08/29 11:26:36;;;;;;;5.18;1.95;;;22.80;54.70;;;;;;5075590;28;20179;-61
2022/08/29 11:29:29;;;;;;;5.15;2.03;;;22.90;54.70;;;;;;5053402;28;20266;-61
2022/08/29 11:32:31;;;;;;;6.28;2.40;;;23.00;54.50;;;;;;5071801;28;20254;-61
2022/08/29 11:35:20;;;;;;;5.28;2.33;;;23.00;54.30;;;;;;5070788;28;20291;-61
2022/08/29 11:38:06;;;;;;;4.15;1.95;;;23.10;54.20;;;;;;5074988;28;20209;-61
2022/08/29 11:40:59;;;;;;;6.63;2.42;;;23.20;54.10;;;;;;5057521;28;20245;-62
2022/08/29 11:43:27;;;;;;;4.43;2.60;;;23.20;53.90;;;;;;5072068;28;20171;-61
2022/08/29 11:45:59;;;;;;;6.75;2.78;;;23.30;53.80;;;;;;5074969;28;20177;-65
2022/08/29 11:48:37;;;;;;;7.68;2.53;;;23.20;53.90;;;;;;5075144;28;20170;-66
2022/08/29 11:51:28;;;;;;;6.05;2.40;;;23.10;54.00;;;;;;5072527;28;20176;-66
2022/08/29 11:53:54;;;;;;;6.50;1.80;;;23.10;54.10;;;;;;5055898;28;20177;-66
2022/08/29 11:56:21;;;;;;;5.55;2.30;;;23.10;54.20;;;;;;5074185;28;20167;-66
2022/08/29 11:58:48;;;;;;;8.23;2.28;;;23.10;54.20;;;;;;5074751;28;20208;-66
2022/08/29 12:01:33;;;;;;;5.85;2.60;;;23.10;54.10;;;;;;5071018;28;20178;-66
2022/08/29 12:03:58;;;;;;;6.20;2.40;;;23.20;53.80;;;;;;5073708;28;20163;-66
2022/08/29 12:06:31;;;;;;;5.18;2.28;;;23.30;53.70;;;;;;5074793;28;20178;-65
2022/08/29 12:09:11;;;;;;;4.10;2.03;;;23.30;53.70;;;;;;5055607;28;20228;-65
2022/08/29 12:12:07;;;;;;;6.95;2.15;;;23.30;53.70;;;;;;5054293;28;20162;-65
2022/08/29 12:14:42;;;;;;;4.13;2.13;;;23.40;53.70;;;;;;5072107;28;20183;-66
2022/08/29 12:17:09;;;;;;;5.28;2.10;;;23.40;53.50;;;;;;5073518;28;20236;-66
2022/08/29 12:19:45;;;;;;;4.72;2.40;;;23.50;53.40;;;;;;5056821;28;20177;-66
2022/08/29 12:22:31;;;;;;;4.82;1.90;;;23.60;53.20;;;;;;5070741;28;20241;-66
2022/08/29 12:24:56;;;;;;;2.78;1.90;;;23.60;53.10;;;;;;5054843;28;20327;-65
2022/08/29 12:27:59;;;;;;;2.95;1.88;;;23.60;53.10;;;;;;5056680;28;20641;-65
2022/08/29 12:30:25;;;;;;;2.90;1.85;;;23.60;53.00;;;;;;5071310;28;20178;-66
2022/08/29 12:33:10;;;;;;;5.93;1.98;;;23.70;52.90;;;;;;5073373;28;20171;-62
2022/08/29 12:35:50;;;;;;;6.85;2.50;;;23.80;52.80;;;;;;5040228;28;20625;-57
2022/08/29 12:38:28;;;;;;;8.57;2.78;;;23.80;53.00;;;;;;5073456;28;20692;-58
2022/08/29 12:41:06;;;;;;;9.02;2.45;;;23.80;53.10;;;;;;5070903;28;20216;-57
2022/08/29 12:43:36;;;;;;;5.75;2.28;;;23.70;53.20;;;;;;5056439;28;20178;-57
2022/08/29 12:46:25;;;;;;;4.05;1.98;;;23.70;53.40;;;;;;5055269;28;20676;-56
2022/08/29 12:48:53;;;;;;;7.00;1.92;;;23.60;53.50;;;;;;5056084;28;20178;-57
2022/08/29 12:51:36;;;;;;;6.03;2.20;;;23.60;53.60;;;;;;5036125;28;20174;-55
2022/08/29 12:54:01;;;;;;;8.00;1.90;;;23.50;53.60;;;;;;5073126;28;20178;-56
2022/08/29 12:56:27;;;;;;;4.68;2.30;;;23.50;53.40;;;;;;5073606;28;20690;-57
2022/08/29 12:58:57;;;;;;;2.67;1.85;;;23.60;53.40;;;;;;5055298;28;20170;-57
2022/08/29 13:01:37;;;;;;;4.22;2.00;;;23.60;53.40;;;;;;5055849;28;20254;-56
2022/08/29 13:04:14;;;;;;;4.75;1.90;;;23.60;53.30;;;;;;5071538;28;20845;-54
2022/08/29 13:06:55;;;;;;;6.38;2.13;;;23.60;53.30;;;;;;5072959;28;20194;-57